Buoy 17652

sailwx.info

Track history (hours):
 
Tides and Currents Weather Stations Pressure Air Temp Water Temp Dewpoint Dewpoint Depression Visibility Wind Speed Wind Dir Waves Ship Positions

Drifting buoy 17652

Last reported at 2017-Jan-18 06:00 UTC. Time now 2017-Jan-18 10:13 UTC.
Position S 38°51' E 062°55'.

Barometer 1020.2 mb
Water temperature 17.2 ° C

Date/timePositionNaut miles runAvg speedWind from/ knotsBaromVisibWave heightAir tempDewpointWater temp
2017-Jan-18 06:00S 38°51' E 062°55'0 0.0 1020.2 17.2
2017-Jan-18 05:00S 38°51' E 062°55'2 2.0 1019.8 17.3
2017-Jan-18 04:00S 38°52' E 062°57'0 0.5 1019.2 17.3
2017-Jan-18 03:00S 38°52' E 062°58'1 1.1 1019.0 17.4
2017-Jan-18 02:00S 38°52' E 062°59'2 2.3 1018.6 17.4
2017-Jan-18 01:00S 38°54' E 063°01'0 0.0 1018.1 17.4
2017-Jan-18 00:00S 38°54' E 063°01'0 0.0 1017.8 17.4
2017-Jan-17 23:00S 38°54' E 063°01'0 0.0 1017.5 17.4
2017-Jan-17 22:00S 38°54' E 063°01'0 0.0 1017.8 17.4
2017-Jan-17 21:00S 38°54' E 063°01'1 0.5 1018.2 17.4
2017-Jan-17 18:00S 38°54' E 062°59'0 0.5 1018.8 17.4
2017-Jan-17 17:00S 38°54' E 062°58'1 0.8 1018.9 17.4
2017-Jan-17 16:00S 38°53' E 062°58'1 0.3 1018.5 17.4
2017-Jan-17 13:00S 38°53' E 062°57'1 0.8 1018.1 17.3
2017-Jan-17 12:00S 38°52' E 062°56'0 0.0 1018.2 17.4
2017-Jan-17 11:00S 38°52' E 062°56'4 3.9 1018.6 17.3
2017-Jan-17 10:00S 38°49' E 062°55'0 0.0 1019.1 17.4
2017-Jan-17 09:00S 38°49' E 062°55'0 0.0 1019.2 17.4
2017-Jan-17 05:00S 38°49' E 062°55'1 0.6 1020.0 17.4
2017-Jan-17 04:00S 38°48' E 062°55'0 0.0 1020.4 17.4
2017-Jan-17 03:00S 38°48' E 062°55'0 0.0 1020.7 17.4
2017-Jan-17 02:00S 38°48' E 062°55'2 1.9 1021.4 17.5
2017-Jan-17 01:00S 38°46' E 062°54'1 0.4 1021.6 17.5
2017-Jan-16 23:00S 38°46' E 062°53'1 0.6 1022.6 17.5
2017-Jan-16 22:00S 38°45' E 062°53'2 1.9 1023.4 17.5
2017-Jan-16 21:00S 38°43' E 062°54'0 0.0 1024.0 17.5
2017-Jan-16 19:00S 38°43' E 062°54'2 1.8 1025.2 17.6
2017-Jan-16 18:00S 38°42' E 062°56'1 0.6 1025.5 17.6
2017-Jan-16 16:00S 38°41' E 062°57'3 0.7 1025.8 17.7
2017-Jan-16 12:00S 38°40' E 063°00'1 0.5 1025.7 17.9
2017-Jan-16 10:00S 38°40' E 063°01'3 0.7 1026.1 17.8
2017-Jan-16 06:00S 38°39' E 063°05'1 0.8 1026.7 17.4
2017-Jan-16 05:00S 38°38' E 063°05'1 0.8 1026.7 17.3
2017-Jan-16 04:00S 38°39' E 063°06'1 0.9 1027.0 17.2
2017-Jan-16 03:00S 38°39' E 063°07'1 0.9 1026.4 17.2
2017-Jan-16 02:00S 38°39' E 063°08'1 1.4 1025.6 17.1
2017-Jan-16 01:00S 38°39' E 063°10'0 0.0 1024.6 17.1
2017-Jan-15 23:00S 38°39' E 063°10'3 1.3 1023.1 17.1
2017-Jan-15 21:00S 38°41' E 063°13'1 0.3 1022.4 17.1
2017-Jan-15 17:00S 38°42' E 063°13'0 0.0 1019.4 17.1
2017-Jan-15 16:00S 38°42' E 063°13'1 0.3 1018.4 17.1
2017-Jan-15 13:00S 38°41' E 063°13'0 0.0 1015.6 17.3
2017-Jan-15 12:00S 38°41' E 063°13'1 0.8 1015.7 17.4
2017-Jan-15 11:00S 38°41' E 063°12'4 0.6 1015.9 17.5
2017-Jan-15 05:00S 38°37' E 063°11'2 1.5 1018.0 17.9
2017-Jan-15 04:00S 38°36' E 063°10'2 2.0 1018.8 17.9
2017-Jan-15 03:00S 38°34' E 063°11'0 0.0 1019.0 17.9
2017-Jan-15 02:00S 38°34' E 063°11'2 1.8 1019.1 17.9
2017-Jan-15 01:00S 38°32' E 063°11'0 0.5 1018.9 18.0
2017-Jan-15 00:00S 38°32' E 063°11'2 1.9 1019.1 18.0
2017-Jan-14 23:00S 38°31' E 063°12'0 0.0 1019.2 18.0
2017-Jan-14 22:00S 38°31' E 063°12'2 1.5 1019.6 18.0
2017-Jan-14 21:00S 38°31' E 063°14'3 1.6 1019.6 18.0
2017-Jan-14 19:00S 38°28' E 063°15'0 0.0 1020.6 18.1
2017-Jan-14 18:00S 38°28' E 063°15'0 0.5 1021.2 18.1
2017-Jan-14 17:00S 38°28' E 063°16'3 2.6 1021.3 18.1
2017-Jan-14 16:00S 38°26' E 063°18'0 0.0 1021.2 18.1
2017-Jan-14 14:00S 38°26' E 063°18'0 0.0 1021.4 18.1
2017-Jan-14 13:00S 38°26' E 063°18'2 1.5 1021.4 18.1
2017-Jan-14 12:00S 38°25' E 063°19'1 0.6 1021.7 18.0
2017-Jan-14 11:00S 38°25' E 063°19'0 0.0 1021.9 18.0
2017-Jan-14 10:00S 38°25' E 063°19'5 1.0 1022.0 18.0
2017-Jan-14 05:00S 38°20' E 063°21'6 1.6 1022.1 17.9
2017-Jan-14 01:00S 38°16' E 063°28'0 0.0 1022.4 17.8
2017-Jan-14 00:00S 38°16' E 063°28'2 2.0 1022.2 17.7
2017-Jan-13 23:00S 38°16' E 063°30'1 0.9 1021.9 17.7
2017-Jan-13 22:00S 38°16' E 063°31'0 0.0 1022.2 17.7
2017-Jan-13 21:00S 38°16' E 063°31'2 1.5 1022.1 17.7
2017-Jan-13 20:00S 38°15' E 063°33'1 0.8 1022.5 17.7
2017-Jan-13 19:00S 38°14' E 063°34'1 0.6 1022.6 17.8
2017-Jan-13 18:00S 38°15' E 063°34'1 0.4 1022.9 17.8
2017-Jan-13 16:00S 38°14' E 063°34'1 0.8 1022.6 17.9
2017-Jan-13 15:00S 38°14' E 063°35'0 0.0 1022.2 18.0
2017-Jan-13 14:00S 38°14' E 063°35'2 1.0 1021.8 18.1
2017-Jan-13 12:00S 38°12' E 063°36'2 1.5 1022.0 18.2
2017-Jan-13 11:00S 38°11' E 063°37'0 0.0 1022.5 18.1
2017-Jan-13 10:00S 38°11' E 063°37'4 1.0 1023.4 18.0
2017-Jan-13 06:00S 38°08' E 063°41'0 0.5 1024.2 17.9
2017-Jan-13 05:00S 38°08' E 063°41'2 1.5 1024.1 17.9
2017-Jan-13 04:00S 38°08' E 063°43'2 0.7 1024.7 17.8
2017-Jan-13 01:00S 38°09' E 063°45'1 0.3 1024.5 17.8
2017-Jan-12 22:00S 38°10' E 063°46'1 0.8 1025.0 17.8
2017-Jan-12 21:00S 38°10' E 063°46'1 0.3 1025.3 17.8
2017-Jan-12 18:00S 38°10' E 063°45'2 0.9 1025.7 17.8
2017-Jan-12 16:00S 38°08' E 063°46'0 0.5 1025.6 17.8
2017-Jan-12 15:00S 38°08' E 063°46'2 2.2 1025.4 17.8
2017-Jan-12 14:00S 38°07' E 063°49'0 0.0 1025.1 17.8
2017-Jan-12 13:00S 38°07' E 063°49'0 0.5 1024.7 17.8
2017-Jan-12 12:00S 38°07' E 063°49'2 1.9 1024.7 17.8
2017-Jan-12 11:00S 38°07' E 063°52'6 1.1 1024.8 17.8
2017-Jan-12 05:00S 38°11' E 063°58'2 1.5 1024.8 17.8
2017-Jan-12 04:00S 38°11' E 063°56'0 0.0 1024.5 17.8
2017-Jan-12 03:00S 38°11' E 063°56'1 0.3 1024.3 17.8
2017-Jan-12 01:00S 38°12' E 063°56'0 0.2 1023.0 17.8
2017-Jan-11 22:00S 38°12' E 063°57'1 0.6 1021.7 17.9
2017-Jan-11 21:00S 38°11' E 063°57'1 0.3 1021.5 18.0
2017-Jan-11 19:00S 38°12' E 063°57'1 1.4 1021.2 18.0
2017-Jan-11 18:00S 38°12' E 063°59'1 0.4 1020.9 18.0
2017-Jan-11 16:00S 38°13' E 063°59'2 1.5 1019.5 18.1
2017-Jan-11 15:00S 38°13' E 064°01'4 1.2 1018.7 18.1
2017-Jan-11 12:00S 38°17' E 064°02'1 1.4 1016.6 18.1
2017-Jan-11 11:00S 38°17' E 064°00'3 3.3 1016.2 18.1
2017-Jan-11 10:00S 38°20' E 063°58'0 0.1 1015.7 18.1
2017-Jan-11 06:00S 38°20' E 063°58'3 1.5 1012.8 18.1
2017-Jan-11 04:00S 38°18' E 063°55'3 1.0 1013.7 18.1
2017-Jan-11 01:00S 38°15' E 063°53'1 0.2 1014.6 18.1
2017-Jan-10 22:00S 38°14' E 063°53'1 1.3 1016.4 18.2
2017-Jan-10 21:00S 38°13' E 063°53'2 0.6 1017.3 18.3
2017-Jan-10 18:00S 38°11' E 063°53'1 1.1 1018.7 18.3
2017-Jan-10 17:00S 38°11' E 063°54'1 0.8 1019.1 18.3
2017-Jan-10 16:00S 38°10' E 063°53'0 0.0 1019.4 18.4
2017-Jan-10 15:00S 38°10' E 063°53'1 1.2 1019.6 18.4
2017-Jan-10 14:00S 38°09' E 063°53'0 0.2 1019.5 18.5
2017-Jan-10 12:00S 38°09' E 063°53'1 1.1 1019.6 18.6
2017-Jan-10 11:00S 38°08' E 063°52'5 0.9 1019.8 18.6
2017-Jan-10 05:00S 38°03' E 063°50'2 0.8 1020.2 18.1
2017-Jan-10 03:00S 38°02' E 063°52'2 1.5 1019.5 17.9
2017-Jan-10 02:00S 38°01' E 063°53'1 0.6 1018.9 17.9
2017-Jan-10 01:00S 38°01' E 063°53'1 1.1 1018.4 17.8
2017-Jan-10 00:00S 38°01' E 063°52'1 1.1 1018.0 17.6
2017-Jan-09 23:00S 38°01' E 063°53'0 0.0 1017.5 17.6
2017-Jan-09 22:00S 38°01' E 063°53'0 0.0 1017.4 17.7
2017-Jan-09 21:00S 38°01' E 063°53'1 0.6 1017.5 17.7
2017-Jan-09 19:00S 38°01' E 063°52'0 0.0 1017.5 17.9
2017-Jan-09 18:00S 38°01' E 063°52'1 0.6 1017.1 17.9
2017-Jan-09 17:00S 38°02' E 063°52'0 0.0 1016.7 17.9
2017-Jan-09 16:00S 38°02' E 063°52'1 1.1 1016.2 17.9
2017-Jan-09 15:00S 38°01' E 063°51'1 0.9 1015.3 17.9
2017-Jan-09 14:00S 38°01' E 063°50'1 0.4 1014.6 17.6
2017-Jan-09 12:00S 38°01' E 063°49'0 0.0 1013.7 17.6
2017-Jan-09 11:00S 38°01' E 063°49'1 0.3 1013.2 17.6
2017-Jan-09 09:00S 38°00' E 063°49'1 0.3 1012.9 17.5
2017-Jan-09 05:00S 38°01' E 063°49'1 0.4 1010.8 17.4
2017-Jan-09 03:00S 38°02' E 063°49'1 0.6 1009.5 17.4
2017-Jan-09 01:00S 38°03' E 063°49'0 0.0 1007.0 17.4
2017-Jan-08 23:00S 38°03' E 063°49'2 1.0 1005.2 17.4
2017-Jan-08 21:00S 38°02' E 063°46'1 0.2 1005.1 17.4
2017-Jan-08 18:00S 38°02' E 063°46'1 0.6 1006.7 17.5
2017-Jan-08 17:00S 38°01' E 063°46'1 0.4 1007.2 17.5
2017-Jan-08 15:00S 38°01' E 063°46'1 1.3 1007.6 17.5
2017-Jan-08 14:00S 37°59' E 063°45'1 1.3 1008.0 17.5
2017-Jan-08 13:00S 37°58' E 063°44'0 0.0 1007.7 17.5
2017-Jan-08 12:00S 37°58' E 063°44'0 0.0 1008.5 17.5
2017-Jan-08 11:00S 37°58' E 063°44'1 1.1 1009.0 17.5
2017-Jan-08 10:00S 37°58' E 063°43'2 1.5 1009.8 17.5
2017-Jan-08 09:00S 37°56' E 063°42'0 0.0 1010.1 17.5
2017-Jan-08 06:00S 37°56' E 063°42'   1011.1 17.4
Track history (hours):
 
Tides and Currents Weather Stations Pressure Air Temp Water Temp Dewpoint Dewpoint Depression Visibility Wind Speed Wind Dir Waves Ship Positions

Drifting buoy 17652

Last reported at 2017-Jan-18 06:00 UTC. Time now 2017-Jan-18 10:13 UTC.
Position S 38°51' E 062°55'.

Barometer 1020.2 mb
Water temperature 17.2 ° C

Date/timePositionNaut miles runAvg speedWind from/ knotsBaromVisibWave heightAir tempDewpointWater temp
2017-Jan-18 06:00S 38°51' E 062°55'0 0.0 1020.2 17.2
2017-Jan-18 05:00S 38°51' E 062°55'2 2.0 1019.8 17.3
2017-Jan-18 04:00S 38°52' E 062°57'0 0.5 1019.2 17.3
2017-Jan-18 03:00S 38°52' E 062°58'1 1.1 1019.0 17.4
2017-Jan-18 02:00S 38°52' E 062°59'2 2.3 1018.6 17.4
2017-Jan-18 01:00S 38°54' E 063°01'0 0.0 1018.1 17.4
2017-Jan-18 00:00S 38°54' E 063°01'0 0.0 1017.8 17.4
2017-Jan-17 23:00S 38°54' E 063°01'0 0.0 1017.5 17.4
2017-Jan-17 22:00S 38°54' E 063°01'0 0.0 1017.8 17.4
2017-Jan-17 21:00S 38°54' E 063°01'1 0.5 1018.2 17.4
2017-Jan-17 18:00S 38°54' E 062°59'0 0.5 1018.8 17.4
2017-Jan-17 17:00S 38°54' E 062°58'1 0.8 1018.9 17.4
2017-Jan-17 16:00S 38°53' E 062°58'1 0.3 1018.5 17.4
2017-Jan-17 13:00S 38°53' E 062°57'1 0.8 1018.1 17.3
2017-Jan-17 12:00S 38°52' E 062°56'0 0.0 1018.2 17.4
2017-Jan-17 11:00S 38°52' E 062°56'4 3.9 1018.6 17.3
2017-Jan-17 10:00S 38°49' E 062°55'0 0.0 1019.1 17.4
2017-Jan-17 09:00S 38°49' E 062°55'0 0.0 1019.2 17.4
2017-Jan-17 05:00S 38°49' E 062°55'1 0.6 1020.0 17.4
2017-Jan-17 04:00S 38°48' E 062°55'0 0.0 1020.4 17.4
2017-Jan-17 03:00S 38°48' E 062°55'0 0.0 1020.7 17.4
2017-Jan-17 02:00S 38°48' E 062°55'2 1.9 1021.4 17.5
2017-Jan-17 01:00S 38°46' E 062°54'1 0.4 1021.6 17.5
2017-Jan-16 23:00S 38°46' E 062°53'1 0.6 1022.6 17.5
2017-Jan-16 22:00S 38°45' E 062°53'2 1.9 1023.4 17.5
2017-Jan-16 21:00S 38°43' E 062°54'0 0.0 1024.0 17.5
2017-Jan-16 19:00S 38°43' E 062°54'2 1.8 1025.2 17.6
2017-Jan-16 18:00S 38°42' E 062°56'1 0.6 1025.5 17.6
2017-Jan-16 16:00S 38°41' E 062°57'3 0.7 1025.8 17.7
2017-Jan-16 12:00S 38°40' E 063°00'1 0.5 1025.7 17.9
2017-Jan-16 10:00S 38°40' E 063°01'3 0.7 1026.1 17.8
2017-Jan-16 06:00S 38°39' E 063°05'1 0.8 1026.7 17.4
2017-Jan-16 05:00S 38°38' E 063°05'1 0.8 1026.7 17.3
2017-Jan-16 04:00S 38°39' E 063°06'1 0.9 1027.0 17.2
2017-Jan-16 03:00S 38°39' E 063°07'1 0.9 1026.4 17.2
2017-Jan-16 02:00S 38°39' E 063°08'1 1.4 1025.6 17.1
2017-Jan-16 01:00S 38°39' E 063°10'0 0.0 1024.6 17.1
2017-Jan-15 23:00S 38°39' E 063°10'3 1.3 1023.1 17.1
2017-Jan-15 21:00S 38°41' E 063°13'1 0.3 1022.4 17.1
2017-Jan-15 17:00S 38°42' E 063°13'0 0.0 1019.4 17.1
2017-Jan-15 16:00S 38°42' E 063°13'1 0.3 1018.4 17.1
2017-Jan-15 13:00S 38°41' E 063°13'0 0.0 1015.6 17.3
2017-Jan-15 12:00S 38°41' E 063°13'1 0.8 1015.7 17.4
2017-Jan-15 11:00S 38°41' E 063°12'4 0.6 1015.9 17.5
2017-Jan-15 05:00S 38°37' E 063°11'2 1.5 1018.0 17.9
2017-Jan-15 04:00S 38°36' E 063°10'2 2.0 1018.8 17.9
2017-Jan-15 03:00S 38°34' E 063°11'0 0.0 1019.0 17.9
2017-Jan-15 02:00S 38°34' E 063°11'2 1.8 1019.1 17.9
2017-Jan-15 01:00S 38°32' E 063°11'0 0.5 1018.9 18.0
2017-Jan-15 00:00S 38°32' E 063°11'2 1.9 1019.1 18.0
2017-Jan-14 23:00S 38°31' E 063°12'0 0.0 1019.2 18.0
2017-Jan-14 22:00S 38°31' E 063°12'2 1.5 1019.6 18.0
2017-Jan-14 21:00S 38°31' E 063°14'3 1.6 1019.6 18.0
2017-Jan-14 19:00S 38°28' E 063°15'0 0.0 1020.6 18.1
2017-Jan-14 18:00S 38°28' E 063°15'0 0.5 1021.2 18.1
2017-Jan-14 17:00S 38°28' E 063°16'3 2.6 1021.3 18.1
2017-Jan-14 16:00S 38°26' E 063°18'0 0.0 1021.2 18.1
2017-Jan-14 14:00S 38°26' E 063°18'0 0.0 1021.4 18.1
2017-Jan-14 13:00S 38°26' E 063°18'2 1.5 1021.4 18.1
2017-Jan-14 12:00S 38°25' E 063°19'1 0.6 1021.7 18.0
2017-Jan-14 11:00S 38°25' E 063°19'0 0.0 1021.9 18.0
2017-Jan-14 10:00S 38°25' E 063°19'5 1.0 1022.0 18.0
2017-Jan-14 05:00S 38°20' E 063°21'6 1.6 1022.1 17.9
2017-Jan-14 01:00S 38°16' E 063°28'0 0.0 1022.4 17.8
2017-Jan-14 00:00S 38°16' E 063°28'2 2.0 1022.2 17.7
2017-Jan-13 23:00S 38°16' E 063°30'1 0.9 1021.9 17.7
2017-Jan-13 22:00S 38°16' E 063°31'0 0.0 1022.2 17.7
2017-Jan-13 21:00S 38°16' E 063°31'2 1.5 1022.1 17.7
2017-Jan-13 20:00S 38°15' E 063°33'1 0.8 1022.5 17.7
2017-Jan-13 19:00S 38°14' E 063°34'1 0.6 1022.6 17.8
2017-Jan-13 18:00S 38°15' E 063°34'1 0.4 1022.9 17.8
2017-Jan-13 16:00S 38°14' E 063°34'1 0.8 1022.6 17.9
2017-Jan-13 15:00S 38°14' E 063°35'0 0.0 1022.2 18.0
2017-Jan-13 14:00S 38°14' E 063°35'2 1.0 1021.8 18.1
2017-Jan-13 12:00S 38°12' E 063°36'2 1.5 1022.0 18.2
2017-Jan-13 11:00S 38°11' E 063°37'0 0.0 1022.5 18.1
2017-Jan-13 10:00S 38°11' E 063°37'4 1.0 1023.4 18.0
2017-Jan-13 06:00S 38°08' E 063°41'0 0.5 1024.2 17.9
2017-Jan-13 05:00S 38°08' E 063°41'2 1.5 1024.1 17.9
2017-Jan-13 04:00S 38°08' E 063°43'2 0.7 1024.7 17.8
2017-Jan-13 01:00S 38°09' E 063°45'1 0.3 1024.5 17.8
2017-Jan-12 22:00S 38°10' E 063°46'1 0.8 1025.0 17.8
2017-Jan-12 21:00S 38°10' E 063°46'1 0.3 1025.3 17.8
2017-Jan-12 18:00S 38°10' E 063°45'2 0.9 1025.7 17.8
2017-Jan-12 16:00S 38°08' E 063°46'0 0.5 1025.6 17.8
2017-Jan-12 15:00S 38°08' E 063°46'2 2.2 1025.4 17.8
2017-Jan-12 14:00S 38°07' E 063°49'0 0.0 1025.1 17.8
2017-Jan-12 13:00S 38°07' E 063°49'0 0.5 1024.7 17.8
2017-Jan-12 12:00S 38°07' E 063°49'2 1.9 1024.7 17.8
2017-Jan-12 11:00S 38°07' E 063°52'6 1.1 1024.8 17.8
2017-Jan-12 05:00S 38°11' E 063°58'2 1.5 1024.8 17.8
2017-Jan-12 04:00S 38°11' E 063°56'0 0.0 1024.5 17.8
2017-Jan-12 03:00S 38°11' E 063°56'1 0.3 1024.3 17.8
2017-Jan-12 01:00S 38°12' E 063°56'0 0.2 1023.0 17.8
2017-Jan-11 22:00S 38°12' E 063°57'1 0.6 1021.7 17.9
2017-Jan-11 21:00S 38°11' E 063°57'1 0.3 1021.5 18.0
2017-Jan-11 19:00S 38°12' E 063°57'1 1.4 1021.2 18.0
2017-Jan-11 18:00S 38°12' E 063°59'1 0.4 1020.9 18.0
2017-Jan-11 16:00S 38°13' E 063°59'2 1.5 1019.5 18.1
2017-Jan-11 15:00S 38°13' E 064°01'4 1.2 1018.7 18.1
2017-Jan-11 12:00S 38°17' E 064°02'1 1.4 1016.6 18.1
2017-Jan-11 11:00S 38°17' E 064°00'3 3.3 1016.2 18.1
2017-Jan-11 10:00S 38°20' E 063°58'0 0.1 1015.7 18.1
2017-Jan-11 06:00S 38°20' E 063°58'3 1.5 1012.8 18.1
2017-Jan-11 04:00S 38°18' E 063°55'3 1.0 1013.7 18.1
2017-Jan-11 01:00S 38°15' E 063°53'1 0.2 1014.6 18.1
2017-Jan-10 22:00S 38°14' E 063°53'1 1.3 1016.4 18.2
2017-Jan-10 21:00S 38°13' E 063°53'2 0.6 1017.3 18.3
2017-Jan-10 18:00S 38°11' E 063°53'1 1.1 1018.7 18.3
2017-Jan-10 17:00S 38°11' E 063°54'1 0.8 1019.1 18.3
2017-Jan-10 16:00S 38°10' E 063°53'0 0.0 1019.4 18.4
2017-Jan-10 15:00S 38°10' E 063°53'1 1.2 1019.6 18.4
2017-Jan-10 14:00S 38°09' E 063°53'0 0.2 1019.5 18.5
2017-Jan-10 12:00S 38°09' E 063°53'1 1.1 1019.6 18.6
2017-Jan-10 11:00S 38°08' E 063°52'5 0.9 1019.8 18.6
2017-Jan-10 05:00S 38°03' E 063°50'2 0.8 1020.2 18.1
2017-Jan-10 03:00S 38°02' E 063°52'2 1.5 1019.5 17.9
2017-Jan-10 02:00S 38°01' E 063°53'1 0.6 1018.9 17.9
2017-Jan-10 01:00S 38°01' E 063°53'1 1.1 1018.4 17.8
2017-Jan-10 00:00S 38°01' E 063°52'1 1.1 1018.0 17.6
2017-Jan-09 23:00S 38°01' E 063°53'0 0.0 1017.5 17.6
2017-Jan-09 22:00S 38°01' E 063°53'0 0.0 1017.4 17.7
2017-Jan-09 21:00S 38°01' E 063°53'1 0.6 1017.5 17.7
2017-Jan-09 19:00S 38°01' E 063°52'0 0.0 1017.5 17.9
2017-Jan-09 18:00S 38°01' E 063°52'1 0.6 1017.1 17.9
2017-Jan-09 17:00S 38°02' E 063°52'0 0.0 1016.7 17.9
2017-Jan-09 16:00S 38°02' E 063°52'1 1.1 1016.2 17.9
2017-Jan-09 15:00S 38°01' E 063°51'1 0.9 1015.3 17.9
2017-Jan-09 14:00S 38°01' E 063°50'1 0.4 1014.6 17.6
2017-Jan-09 12:00S 38°01' E 063°49'0 0.0 1013.7 17.6
2017-Jan-09 11:00S 38°01' E 063°49'1 0.3 1013.2 17.6
2017-Jan-09 09:00S 38°00' E 063°49'1 0.3 1012.9 17.5
2017-Jan-09 05:00S 38°01' E 063°49'1 0.4 1010.8 17.4
2017-Jan-09 03:00S 38°02' E 063°49'1 0.6 1009.5 17.4
2017-Jan-09 01:00S 38°03' E 063°49'0 0.0 1007.0 17.4
2017-Jan-08 23:00S 38°03' E 063°49'2 1.0 1005.2 17.4
2017-Jan-08 21:00S 38°02' E 063°46'1 0.2 1005.1 17.4
2017-Jan-08 18:00S 38°02' E 063°46'1 0.6 1006.7 17.5
2017-Jan-08 17:00S 38°01' E 063°46'1 0.4 1007.2 17.5
2017-Jan-08 15:00S 38°01' E 063°46'1 1.3 1007.6 17.5
2017-Jan-08 14:00S 37°59' E 063°45'1 1.3 1008.0 17.5
2017-Jan-08 13:00S 37°58' E 063°44'0 0.0 1007.7 17.5
2017-Jan-08 12:00S 37°58' E 063°44'0 0.0 1008.5 17.5
2017-Jan-08 11:00S 37°58' E 063°44'1 1.1 1009.0 17.5
2017-Jan-08 10:00S 37°58' E 063°43'2 1.5 1009.8 17.5
2017-Jan-08 09:00S 37°56' E 063°42'0 0.0 1010.1 17.5
2017-Jan-08 06:00S 37°56' E 063°42'   1011.1 17.4

Dump ship's entire track history